Time;durP1;ratioP1;P1;durP2;ratioP2;P2;SDS_P1;SDS_P2;PMS_P1;PMS_P2;Temp;Humidity;BMP_temperature;BMP_pressure;BME280_temperature;BME280_humidity;BME280_pressure;Samples;Min_cycle;Max_cycle;Signal;HPM_P1;HPM_P2
2023/10/21 00:02:02;;;;;;;0.40;0.40;;;;;;;12.92;73.67;95951.03;5002241;28;20426;-76
2023/10/21 00:04:28;;;;;;;0.40;0.40;;;;;;;13.18;72.79;95947.69;5003152;28;20044;-76
2023/10/21 00:06:54;;;;;;;0.40;0.40;;;;;;;12.94;73.29;95943.84;4998028;28;20041;-76
2023/10/21 00:09:20;;;;;;;0.40;0.40;;;;;;;12.96;72.72;95961.63;4999379;28;20058;-76
2023/10/21 00:11:45;;;;;;;0.40;0.40;;;;;;;13.19;71.76;95979.78;5003558;28;20046;-76
2023/10/21 00:14:11;;;;;;;0.40;0.40;;;;;;;13.10;72.20;95980.88;5002847;28;20030;-76
2023/10/21 00:16:36;;;;;;;0.40;0.40;;;;;;;13.06;72.63;95981.00;5000732;28;20049;-76
2023/10/21 00:19:03;;;;;;;0.40;0.40;;;;;;;13.29;71.16;95975.09;5002739;28;20033;-76
2023/10/21 00:21:28;;;;;;;0.40;0.40;;;;;;;13.34;71.22;95986.56;5001256;28;20046;-77
2023/10/21 00:23:54;;;;;;;0.40;0.40;;;;;;;13.64;69.95;95997.41;5002430;28;20910;-76
2023/10/21 00:26:20;;;;;;;0.30;0.30;;;;;;;13.49;70.15;96002.22;5000411;28;20025;-76
2023/10/21 00:28:51;;;;;;;0.30;0.30;;;;;;;13.89;68.84;96006.50;5016151;28;20091;-75
2023/10/21 00:31:16;;;;;;;0.30;0.30;;;;;;;14.10;68.16;96013.97;5003614;28;20041;-76
2023/10/21 00:33:42;;;;;;;0.30;0.30;;;;;;;14.09;67.58;96006.84;5003610;28;20158;-76
2023/10/21 00:36:07;;;;;;;0.30;0.30;;;;;;;14.01;68.38;96008.00;5002485;28;20037;-76
2023/10/21 00:38:33;;;;;;;0.30;0.30;;;;;;;14.08;68.65;96031.91;5017022;28;20108;-76
2023/10/21 00:40:58;;;;;;;0.30;0.30;;;;;;;14.23;67.50;96018.97;4999025;28;20835;-77
2023/10/21 00:43:38;;;;;;;0.30;0.30;;;;;;;13.89;69.37;96021.72;5003901;28;20057;-76
2023/10/21 00:46:15;;;;;;;0.32;0.32;;;;;;;13.99;68.41;96033.94;5006514;28;20033;-76
2023/10/21 00:48:41;;;;;;;;;;;;;;;14.08;68.42;96021.19;4999023;28;20488;-76
2023/10/21 00:51:07;;;;;;;0.40;0.40;;;;;;;14.38;67.28;96023.91;5016318;28;19917;-76
2023/10/21 00:53:33;;;;;;;0.30;0.30;;;;;;;14.31;67.56;96019.63;5002500;28;20038;-76
2023/10/21 00:56:02;;;;;;;0.40;0.40;;;;;;;14.43;67.07;96034.50;5001150;28;20098;-76
2023/10/21 00:58:31;;;;;;;0.30;0.30;;;;;;;14.29;67.30;96030.41;5000730;28;20169;-76
2023/10/21 01:01:01;;;;;;;0.30;0.30;;;;;;;14.28;67.74;96023.31;5014581;28;20369;-76
2023/10/21 01:03:28;;;;;;;0.30;0.30;;;;;;;14.60;66.24;96030.41;4999616;28;20040;-76
2023/10/21 01:05:53;;;;;;;0.40;0.40;;;;;;;14.53;66.56;96025.28;4999737;28;20045;-75
2023/10/21 01:08:19;;;;;;;0.30;0.30;;;;;;;14.27;67.42;96031.38;4997387;28;20096;-75
2023/10/21 01:10:45;;;;;;;0.30;0.30;;;;;;;13.88;69.29;96031.56;4999548;28;20852;-76
2023/10/21 01:13:10;;;;;;;0.30;0.30;;;;;;;13.64;70.23;96040.25;4998417;28;20058;-76
2023/10/21 01:15:36;;;;;;;0.40;0.40;;;;;;;13.62;70.34;96055.50;5002311;28;20458;-76
2023/10/21 01:18:03;;;;;;;0.38;0.38;;;;;;;13.54;70.04;96045.84;5013526;28;20034;-76
2023/10/21 01:20:29;;;;;;;;;;;;;;;13.85;69.11;96055.78;5001820;28;20096;-76
2023/10/21 01:22:57;;;;;;;0.40;0.40;;;;;;;13.65;69.72;96055.41;5015949;28;19921;-76
2023/10/21 01:25:24;;;;;;;0.40;0.40;;;;;;;13.85;69.06;96069.19;4999682;28;20525;-76
2023/10/21 01:27:54;;;;;;;0.40;0.40;;;;;;;13.66;70.44;96084.88;5002703;28;20795;-76
2023/10/21 01:30:20;;;;;;;0.40;0.40;;;;;;;13.46;70.39;96088.03;5013691;28;20048;-77
2023/10/21 01:32:47;;;;;;;0.40;0.40;;;;;;;13.63;70.05;96082.25;4999960;28;20046;-76
2023/10/21 01:35:12;;;;;;;0.30;0.30;;;;;;;13.84;68.92;96094.19;4999589;28;20069;-76
2023/10/21 01:37:38;;;;;;;0.40;0.40;;;;;;;14.11;67.95;96096.16;5016042;28;20038;-76
2023/10/21 01:40:04;;;;;;;0.40;0.40;;;;;;;14.06;68.44;96098.09;5001606;28;20079;-76
2023/10/21 01:42:29;;;;;;;0.40;0.40;;;;;;;14.07;68.17;96097.16;5000962;28;20571;-76
2023/10/21 01:44:55;;;;;;;0.40;0.40;;;;;;;14.36;67.29;96112.44;4998497;28;20034;-76
2023/10/21 01:47:21;;;;;;;0.40;0.40;;;;;;;14.03;68.30;96111.56;4999069;28;20034;-76
2023/10/21 01:49:47;;;;;;;0.30;0.30;;;;;;;14.23;67.37;96116.41;4998542;28;20042;-76
2023/10/21 01:52:13;;;;;;;0.32;0.32;;;;;;;14.10;67.93;96121.22;5001202;28;20030;-76
2023/10/21 01:54:45;;;;;;;0.40;0.40;;;;;;;14.10;67.98;96128.38;4999707;28;20041;-76
2023/10/21 01:57:11;;;;;;;0.40;0.40;;;;;;;13.97;68.79;96138.53;4999627;28;20049;-76
2023/10/21 01:59:40;;;;;;;0.30;0.30;;;;;;;13.93;69.34;96141.34;4994760;28;20034;-76
2023/10/21 02:02:06;;;;;;;0.30;0.30;;;;;;;14.08;68.24;96152.56;4995152;28;20055;-76
2023/10/21 02:04:32;;;;;;;0.40;0.40;;;;;;;13.93;69.56;96160.09;4998189;28;20772;-76
2023/10/21 02:06:57;;;;;;;0.40;0.40;;;;;;;14.14;68.40;96169.41;4997959;28;20049;-76
2023/10/21 02:09:23;;;;;;;0.30;0.30;;;;;;;14.26;68.03;96161.03;5001468;28;20049;-76
2023/10/21 02:11:48;;;;;;;0.30;0.30;;;;;;;14.49;66.55;96169.38;5014981;28;20042;-75
2023/10/21 02:14:14;;;;;;;0.30;0.30;;;;;;;14.55;66.45;96173.69;4997531;28;20041;-76
2023/10/21 02:16:40;;;;;;;0.30;0.30;;;;;;;14.45;67.21;96178.38;5001738;28;20426;-76
2023/10/21 02:19:05;;;;;;;0.30;0.30;;;;;;;14.46;66.79;96187.31;5001858;28;20038;-76
2023/10/21 02:21:31;;;;;;;0.30;0.30;;;;;;;14.50;67.12;96181.84;5013998;28;20034;-75
2023/10/21 02:23:56;;;;;;;0.30;0.30;;;;;;;14.52;66.29;96193.44;4998781;28;20400;-76
2023/10/21 02:26:22;;;;;;;0.30;0.30;;;;;;;14.43;66.92;96201.72;4999414;28;20026;-76
2023/10/21 02:28:47;;;;;;;0.30;0.30;;;;;;;14.54;66.46;96204.13;5001037;28;20049;-76
2023/10/21 02:31:19;;;;;;;0.30;0.30;;;;;;;14.47;66.53;96203.41;4999005;28;20400;-76
2023/10/21 02:33:44;;;;;;;0.30;0.30;;;;;;;14.45;67.15;96212.38;5013762;28;20538;-76
2023/10/21 02:36:10;;;;;;;0.30;0.30;;;;;;;14.30;67.75;96221.72;4999986;28;20038;-76
2023/10/21 02:38:35;;;;;;;0.30;0.30;;;;;;;14.16;67.90;96223.88;5002298;28;20525;-76
2023/10/21 02:41:03;;;;;;;0.30;0.30;;;;;;;14.13;68.43;96219.44;5002147;28;20132;-76
2023/10/21 02:43:29;;;;;;;0.30;0.30;;;;;;;14.09;68.51;96232.06;5000076;28;20068;-76
2023/10/21 02:45:54;;;;;;;0.40;0.40;;;;;;;14.04;68.98;96234.00;5014138;28;20107;-76
2023/10/21 02:48:21;;;;;;;0.40;0.40;;;;;;;13.89;69.31;96228.97;4998679;28;20041;-76
2023/10/21 02:50:48;;;;;;;0.40;0.40;;;;;;;13.85;69.23;96225.53;5000108;28;20042;-76
2023/10/21 02:53:13;;;;;;;0.40;0.40;;;;;;;13.84;69.47;96237.13;4998092;28;20034;-76
2023/10/21 02:55:39;;;;;;;0.40;0.40;;;;;;;13.74;69.69;96238.28;5001377;28;20760;-76
2023/10/21 02:58:05;;;;;;;0.32;0.32;;;;;;;13.58;70.54;96232.38;5002007;28;20045;-75
2023/10/21 03:00:31;;;;;;;0.40;0.40;;;;;;;13.44;71.17;96250.56;5013199;28;20488;-76
2023/10/21 03:02:56;;;;;;;0.40;0.40;;;;;;;13.58;70.91;96247.59;4998283;28;20030;-76
2023/10/21 03:05:22;;;;;;;0.35;0.35;;;;;;;13.44;71.36;96242.53;4998472;28;20026;-76
2023/10/21 03:07:48;;;;;;;0.40;0.40;;;;;;;13.43;71.14;96251.50;5001770;28;20041;-76
2023/10/21 03:10:13;;;;;;;0.40;0.40;;;;;;;13.45;71.34;96244.28;5003993;28;20372;-76
2023/10/21 03:12:39;;;;;;;0.40;0.40;;;;;;;13.30;71.50;96253.53;5002771;28;20034;-76
2023/10/21 03:15:06;;;;;;;0.30;0.30;;;;;;;13.20;72.33;96259.09;5003171;28;20041;-76
2023/10/21 03:17:32;;;;;;;0.40;0.40;;;;;;;13.28;71.80;96251.84;4998436;28;20065;-76
2023/10/21 03:19:58;;;;;;;0.30;0.30;;;;;;;13.24;71.93;96260.84;4999140;28;20116;-76
2023/10/21 03:22:25;;;;;;;0.40;0.40;;;;;;;13.09;72.81;96260.22;5006005;28;20045;-77
2023/10/21 03:24:51;;;;;;;0.40;0.40;;;;;;;13.14;72.08;96272.63;5005254;28;20088;-76
2023/10/21 03:27:16;;;;;;;0.30;0.30;;;;;;;13.28;71.59;96273.25;5016697;28;20121;-76
2023/10/21 03:29:42;;;;;;;0.40;0.40;;;;;;;13.41;71.23;96282.78;5002238;28;20038;-75
2023/10/21 03:32:09;;;;;;;0.40;0.40;;;;;;;13.31;71.10;96276.72;5002139;28;20030;-75
2023/10/21 03:34:35;;;;;;;0.40;0.40;;;;;;;13.20;71.62;96283.19;5001287;28;20033;-76
2023/10/21 03:37:00;;;;;;;0.40;0.40;;;;;;;13.17;72.06;96285.94;5003228;28;22004;-76
2023/10/21 03:39:26;;;;;;;0.40;0.40;;;;;;;13.16;71.97;96298.44;5001268;28;20077;-76
2023/10/21 03:41:52;;;;;;;0.40;0.40;;;;;;;13.37;70.82;96294.50;5003933;28;20494;-75
2023/10/21 03:44:18;;;;;;;0.40;0.40;;;;;;;13.49;70.21;96296.00;5003635;28;20053;-76
2023/10/21 03:46:44;;;;;;;0.40;0.40;;;;;;;13.39;70.76;96297.13;4985899;28;20037;-76
2023/10/21 03:49:09;;;;;;;0.40;0.40;;;;;;;13.03;71.92;96303.16;5002575;28;20041;-76
2023/10/21 03:51:35;;;;;;;0.40;0.40;;;;;;;13.06;71.92;96311.13;5001126;28;20081;-76
2023/10/21 03:54:01;;;;;;;0.30;0.30;;;;;;;12.95;72.55;96313.13;5002870;28;20022;-76
2023/10/21 03:56:27;;;;;;;0.40;0.40;;;;;;;13.07;71.71;96320.03;5003646;28;20037;-76
2023/10/21 03:58:52;;;;;;;0.35;0.35;;;;;;;13.05;71.92;96332.56;5000787;28;20052;-75
2023/10/21 04:01:20;;;;;;;0.30;0.30;;;;;;;12.91;72.57;96334.63;4996306;28;20099;-76
2023/10/21 04:03:45;;;;;;;;;;;;;;;13.09;71.63;96337.84;5020524;28;20034;-76
2023/10/21 04:06:13;;;;;;;0.40;0.40;;;;;;;13.18;71.38;96336.78;5001409;28;19921;-75
2023/10/21 04:08:39;;;;;;;0.40;0.40;;;;;;;12.99;72.15;96328.22;5001879;28;20037;-75
2023/10/21 04:11:05;;;;;;;0.30;0.30;;;;;;;13.18;71.03;96333.22;5002092;28;20072;-75
2023/10/21 04:13:31;;;;;;;0.40;0.40;;;;;;;12.91;72.31;96332.84;5002638;28;20112;-76
2023/10/21 04:15:57;;;;;;;0.38;0.38;;;;;;;12.81;72.74;96336.59;5000673;28;20518;-76
2023/10/21 04:18:23;;;;;;;0.40;0.40;;;;;;;12.69;72.89;96337.69;4998835;28;20041;-75
2023/10/21 04:20:48;;;;;;;0.40;0.40;;;;;;;12.99;71.65;96346.09;5003640;28;20038;-75
2023/10/21 04:23:14;;;;;;;0.40;0.40;;;;;;;13.13;71.09;96357.41;5003893;28;20041;-75
2023/10/21 04:25:39;;;;;;;0.40;0.40;;;;;;;12.94;71.77;96362.22;5001450;28;20100;-75
2023/10/21 04:28:05;;;;;;;0.40;0.40;;;;;;;13.26;70.62;96364.31;4999794;28;20037;-75
2023/10/21 04:30:31;;;;;;;0.40;0.40;;;;;;;13.32;70.14;96369.56;5002972;28;20050;-76
2023/10/21 04:32:57;;;;;;;0.40;0.40;;;;;;;13.14;70.98;96367.22;5002479;28;20067;-75
2023/10/21 04:35:22;;;;;;;0.40;0.40;;;;;;;12.99;71.65;96360.34;5003396;28;20412;-75
2023/10/21 04:37:48;;;;;;;0.40;0.40;;;;;;;13.30;70.79;96376.72;5002223;28;20078;-75
2023/10/21 04:40:13;;;;;;;0.40;0.40;;;;;;;13.40;69.69;96382.78;4999269;28;20034;-76
2023/10/21 04:42:39;;;;;;;0.40;0.40;;;;;;;13.44;69.92;96388.97;5001359;28;20365;-75
2023/10/21 04:45:08;;;;;;;0.30;0.30;;;;;;;13.50;69.56;96384.38;5002507;28;20874;-76
2023/10/21 04:47:34;;;;;;;0.30;0.30;;;;;;;13.34;70.22;96391.84;4999804;28;20052;-76
2023/10/21 04:49:59;;;;;;;0.40;0.40;;;;;;;13.34;70.10;96394.50;5001081;28;20057;-75
2023/10/21 04:52:25;;;;;;;0.40;0.40;;;;;;;13.15;70.79;96403.78;5002990;28;20076;-75
2023/10/21 04:54:50;;;;;;;0.30;0.30;;;;;;;13.19;71.00;96410.84;5002621;28;20038;-75
2023/10/21 04:57:16;;;;;;;0.40;0.40;;;;;;;13.03;71.91;96404.88;4999257;28;20037;-75
2023/10/21 04:59:42;;;;;;;0.40;0.40;;;;;;;12.89;72.45;96416.72;5001603;28;20073;-75
2023/10/21 05:02:07;;;;;;;0.40;0.40;;;;;;;12.65;73.08;96421.59;4996550;28;20129;-76
2023/10/21 05:04:34;;;;;;;0.40;0.40;;;;;;;12.76;72.67;96429.44;4999161;28;20069;-75
2023/10/21 05:06:59;;;;;;;0.33;0.33;;;;;;;12.54;73.47;96442.25;4998410;28;20048;-76
2023/10/21 05:09:25;;;;;;;0.40;0.40;;;;;;;12.66;73.03;96443.88;4994956;28;20948;-75
2023/10/21 05:11:50;;;;;;;0.40;0.40;;;;;;;12.69;73.23;96438.47;5000832;28;20038;-75
2023/10/21 05:14:16;;;;;;;0.40;0.40;;;;;;;12.57;73.40;96447.56;5002361;28;20045;-75
2023/10/21 05:16:42;;;;;;;0.40;0.40;;;;;;;12.72;73.51;96446.44;5002234;28;20054;-75
2023/10/21 05:19:07;;;;;;;0.32;0.32;;;;;;;12.92;73.11;96448.78;5000282;28;20104;-75
2023/10/21 05:21:33;;;;;;;0.40;0.40;;;;;;;12.89;73.17;96455.09;5000618;28;20460;-75
2023/10/21 05:23:58;;;;;;;0.40;0.40;;;;;;;12.71;73.51;96463.41;5001254;28;20037;-75
2023/10/21 05:26:25;;;;;;;0.40;0.40;;;;;;;12.81;73.57;96462.34;5002592;28;20643;-75
2023/10/21 05:28:51;;;;;;;0.40;0.40;;;;;;;12.74;74.11;96476.72;4998811;28;20110;-75
2023/10/21 05:31:16;;;;;;;0.40;0.40;;;;;;;12.90;73.36;96482.75;5000503;28;20041;-75
2023/10/21 05:33:42;;;;;;;0.40;0.40;;;;;;;12.63;75.19;96492.06;5000275;28;20741;-75
2023/10/21 05:36:08;;;;;;;0.40;0.40;;;;;;;13.14;72.85;96501.06;5000126;28;20045;-76
2023/10/21 05:38:34;;;;;;;0.30;0.30;;;;;;;13.08;73.02;96498.50;5001243;28;20030;-76
2023/10/21 05:41:00;;;;;;;0.40;0.40;;;;;;;12.86;74.28;96502.44;4996541;28;20106;-74
2023/10/21 05:43:26;;;;;;;0.40;0.40;;;;;;;12.76;74.47;96515.94;5006507;28;20038;-75
2023/10/21 05:45:51;;;;;;;0.30;0.30;;;;;;;12.55;75.10;96522.50;4998333;28;20021;-75
2023/10/21 05:48:17;;;;;;;0.40;0.40;;;;;;;12.78;74.51;96527.50;4997984;28;20510;-76
2023/10/21 05:50:42;;;;;;;0.38;0.38;;;;;;;12.99;73.44;96525.41;5000740;28;20049;-76
2023/10/21 05:53:08;;;;;;;0.40;0.40;;;;;;;13.05;73.77;96530.66;4999474;28;20033;-76
2023/10/21 05:55:40;;;;;;;0.32;0.32;;;;;;;13.25;72.53;96533.94;4999604;28;20038;-76
2023/10/21 05:58:05;;;;;;;0.40;0.40;;;;;;;13.19;73.25;96543.84;5001203;28;20100;-78
2023/10/21 06:00:31;;;;;;;0.40;0.40;;;;;;;13.15;72.78;96545.66;4997660;28;20538;-75
2023/10/21 06:02:56;;;;;;;0.40;0.40;;;;;;;13.00;73.49;96549.47;4999514;28;20045;-76
2023/10/21 06:05:23;;;;;;;0.40;0.40;;;;;;;13.04;72.86;96550.31;4996999;28;20038;-75
2023/10/21 06:07:48;;;;;;;0.40;0.40;;;;;;;12.82;74.38;96566.69;4999536;28;20029;-75
2023/10/21 06:10:14;;;;;;;0.40;0.40;;;;;;;12.69;74.88;96565.09;5000623;28;20030;-75
2023/10/21 06:12:39;;;;;;;0.40;0.40;;;;;;;12.63;75.27;96573.22;4997116;28;20120;-75
2023/10/21 06:15:06;;;;;;;0.40;0.40;;;;;;;12.41;75.91;96577.97;5000527;28;20037;-78
2023/10/21 06:17:31;;;;;;;0.50;0.50;;;;;;;12.29;76.57;96589.69;5000214;28;20100;-75
2023/10/21 06:19:57;;;;;;;0.40;0.40;;;;;;;12.08;78.24;96597.97;5000160;28;20037;-75
2023/10/21 06:22:23;;;;;;;0.40;0.40;;;;;;;12.09;77.97;96602.41;5000200;28;20057;-75
2023/10/21 06:24:49;;;;;;;0.40;0.40;;;;;;;12.07;78.21;96613.13;5000743;28;20030;-75
2023/10/21 06:27:14;;;;;;;0.40;0.40;;;;;;;11.99;78.21;96619.44;5000305;28;20030;-75
2023/10/21 06:29:40;;;;;;;0.50;0.50;;;;;;;11.71;79.44;96621.47;4999003;28;20034;-77
2023/10/21 06:32:08;;;;;;;0.40;0.40;;;;;;;11.63;80.00;96626.88;4998597;28;20052;-75
2023/10/21 06:34:34;;;;;;;0.40;0.40;;;;;;;11.45;80.65;96629.69;4997158;28;20030;-75
2023/10/21 06:36:59;;;;;;;0.45;0.45;;;;;;;11.17;81.59;96640.59;5000959;28;20049;-77
2023/10/21 06:39:25;;;;;;;0.40;0.40;;;;;;;11.53;80.41;96634.06;5001276;28;20400;-75
2023/10/21 06:41:51;;;;;;;0.50;0.50;;;;;;;11.68;79.85;96642.84;4998234;28;20041;-75
2023/10/21 06:44:17;;;;;;;0.50;0.50;;;;;;;12.37;77.17;96634.19;5000653;28;20045;-75
2023/10/21 06:46:43;;;;;;;0.40;0.40;;;;;;;12.89;75.55;96636.16;4998466;28;20038;-75
2023/10/21 06:49:09;;;;;;;0.40;0.40;;;;;;;12.94;75.26;96634.34;5001712;28;20129;-76
2023/10/21 06:51:37;;;;;;;0.38;0.38;;;;;;;13.26;74.33;96647.28;4999328;28;20121;-75
2023/10/21 06:54:05;;;;;;;0.30;0.30;;;;;;;13.02;74.92;96649.38;5001061;28;20045;-77
2023/10/21 06:56:31;;;;;;;0.40;0.40;;;;;;;12.71;76.15;96653.38;5002452;28;20042;-75
2023/10/21 06:58:57;;;;;;;0.35;0.35;;;;;;;12.55;76.93;96663.38;5002027;28;20042;-77
2023/10/21 07:01:22;;;;;;;0.30;0.30;;;;;;;12.62;75.80;96658.84;5001609;28;20041;-78
2023/10/21 07:03:49;;;;;;;0.30;0.30;;;;;;;12.59;75.87;96671.34;5001159;28;20082;-78
2023/10/21 07:06:16;;;;;;;;;;;;;;;12.63;75.56;96679.34;4993909;28;20597;-76
2023/10/21 07:08:42;;;;;;;0.30;0.30;;;;;;;12.57;76.60;96685.66;4991516;28;19918;-79
2023/10/21 07:11:08;;;;;;;0.38;0.38;;;;;;;12.77;75.02;96694.31;4987001;28;20056;-77
2023/10/21 07:13:33;;;;;;;0.30;0.30;;;;;;;12.78;75.13;96697.88;4994206;28;20085;-76
2023/10/21 07:16:10;;;;;;;0.30;0.30;;;;;;;12.77;74.83;96706.81;4990100;28;20038;-76
2023/10/21 07:18:36;;;;;;;0.30;0.30;;;;;;;12.64;75.35;96711.41;4987845;28;20352;-75
2023/10/21 07:21:03;;;;;;;0.40;0.40;;;;;;;12.92;74.02;96711.97;4999001;28;20040;-76
2023/10/21 07:23:28;;;;;;;0.40;0.40;;;;;;;13.47;71.90;96708.59;4992516;28;20091;-76
2023/10/21 07:25:54;;;;;;;0.40;0.40;;;;;;;13.97;70.17;96712.25;4998624;28;20045;-78
2023/10/21 07:28:19;;;;;;;0.40;0.40;;;;;;;14.84;66.92;96710.66;4993049;28;20059;-76
2023/10/21 07:30:45;;;;;;;0.40;0.40;;;;;;;15.64;63.86;96708.97;4995653;28;20802;-76
2023/10/21 07:33:10;;;;;;;0.30;0.30;;;;;;;16.02;62.91;96718.81;4995349;28;20104;-77
2023/10/21 07:35:36;;;;;;;0.30;0.30;;;;;;;16.17;61.74;96731.88;5006876;28;20128;-76
2023/10/21 07:38:01;;;;;;;0.30;0.30;;;;;;;16.46;61.04;96727.56;4998897;28;20026;-76
2023/10/21 07:40:29;;;;;;;0.30;0.30;;;;;;;17.04;58.85;96727.81;4991559;28;20049;-77
2023/10/21 07:42:56;;;;;;;0.20;0.20;;;;;;;16.82;58.36;96733.81;4994570;28;20026;-76
2023/10/21 07:45:22;;;;;;;0.20;0.20;;;;;;;16.51;60.44;96741.78;4996806;28;20068;-78
2023/10/21 07:47:47;;;;;;;0.30;0.30;;;;;;;16.68;59.55;96741.34;5008082;28;20038;-78
2023/10/21 07:50:13;;;;;;;0.20;0.20;;;;;;;16.82;58.67;96752.66;4998375;28;20113;-77
2023/10/21 07:52:39;;;;;;;0.28;0.28;;;;;;;17.37;57.13;96759.16;4995370;28;20072;-78
2023/10/21 07:55:05;;;;;;;0.30;0.30;;;;;;;17.51;56.83;96761.47;4996303;28;20022;-78
2023/10/21 07:57:31;;;;;;;0.30;0.30;;;;;;;18.02;54.98;96763.53;5000686;28;20033;-78
2023/10/21 08:00:00;;;;;;;0.20;0.20;;;;;;;18.40;53.42;96769.50;4993676;28;20447;-78
2023/10/21 08:02:27;;;;;;;0.20;0.20;;;;;;;17.66;55.76;96774.47;4998886;28;20129;-79
2023/10/21 08:04:52;;;;;;;0.20;0.20;;;;;;;17.73;55.80;96771.63;4999056;28;20049;-78
2023/10/21 08:07:19;;;;;;;0.20;0.20;;;;;;;18.67;53.10;96765.81;4998166;28;20563;-79
2023/10/21 08:09:47;;;;;;;0.20;0.20;;;;;;;18.75;52.87;96775.53;5003849;28;20451;-80
2023/10/21 08:12:12;;;;;;;0.20;0.20;;;;;;;18.87;52.20;96772.38;5010081;28;20042;-78
2023/10/21 08:14:40;;;;;;;0.20;0.20;;;;;;;18.95;51.84;96787.41;5001228;28;20041;-79
2023/10/21 08:17:07;;;;;;;0.20;0.20;;;;;;;18.72;51.84;96781.91;4994584;28;20041;-79
2023/10/21 08:19:33;;;;;;;0.20;0.20;;;;;;;19.01;51.59;96794.41;5017063;28;20048;-78
2023/10/21 08:22:00;;;;;;;0.20;0.20;;;;;;;20.14;48.48;96783.88;5018432;28;20039;-78
2023/10/21 08:24:26;;;;;;;0.20;0.20;;;;;;;19.60;50.07;96796.78;4994618;28;20903;-77
2023/10/21 08:26:52;;;;;;;0.20;0.20;;;;;;;20.36;48.04;96787.50;5001022;28;20343;-78
2023/10/21 08:29:17;;;;;;;0.20;0.20;;;;;;;20.41;47.30;96792.69;5003450;28;20116;-79
2023/10/21 08:31:42;;;;;;;0.20;0.20;;;;;;;19.88;48.32;96804.75;5006161;28;20056;-78
2023/10/21 08:34:12;;;;;;;0.20;0.20;;;;;;;19.94;48.20;96803.63;5003159;28;20040;-78
2023/10/21 08:36:39;;;;;;;0.20;0.20;;;;;;;20.20;47.65;96795.34;5004517;28;20050;-76
2023/10/21 08:39:07;;;;;;;0.20;0.20;;;;;;;19.61;48.70;96800.38;5002055;28;20112;-78
2023/10/21 08:41:37;;;;;;;0.20;0.20;;;;;;;20.41;46.69;96800.81;5004773;28;20653;-79
2023/10/21 08:44:05;;;;;;;0.20;0.20;;;;;;;20.52;45.85;96806.72;5020461;28;20148;-78
2023/10/21 08:46:34;;;;;;;0.20;0.20;;;;;;;20.46;46.63;96821.38;5019087;28;20116;-79
2023/10/21 08:49:04;;;;;;;0.20;0.20;;;;;;;20.45;46.61;96821.41;5004004;28;20030;-78
2023/10/21 08:51:32;;;;;;;0.20;0.20;;;;;;;20.32;46.91;96828.31;5004176;28;20053;-78
2023/10/21 08:54:05;;;;;;;0.20;0.20;;;;;;;19.62;47.57;96827.38;5004555;28;20088;-78
2023/10/21 08:56:32;;;;;;;0.20;0.20;;;;;;;20.45;45.66;96833.13;5000533;28;20129;-77
2023/10/21 08:58:59;;;;;;;0.20;0.20;;;;;;;20.20;46.13;96838.66;5003035;28;20101;-79
2023/10/21 09:01:24;;;;;;;0.20;0.20;;;;;;;21.11;44.40;96840.38;5002381;28;20029;-78
2023/10/21 09:03:51;;;;;;;0.10;0.10;;;;;;;21.74;43.01;96839.38;5004427;28;20351;-79
2023/10/21 09:06:20;;;;;;;0.10;0.10;;;;;;;21.59;43.66;96842.81;5003637;28;20383;-78
2023/10/21 09:08:47;;;;;;;0.10;0.10;;;;;;;21.66;42.55;96843.44;5006969;28;20065;-78
2023/10/21 09:11:19;;;;;;;0.20;0.20;;;;;;;21.66;41.98;96840.72;5003223;28;20049;-79
2023/10/21 09:13:45;;;;;;;0.20;0.20;;;;;;;22.20;41.76;96841.84;5004271;28;20042;-79
2023/10/21 09:16:31;;;;;;;0.20;0.20;;;;;;;22.11;42.38;96845.88;5002925;28;20034;-79
2023/10/21 09:19:06;;;;;;;0.10;0.10;;;;;;;21.84;43.00;96847.13;5004552;28;20119;-79
2023/10/21 09:21:40;;;;;;;0.10;0.10;;;;;;;19.13;47.70;96853.44;5003599;28;20080;-77
2023/10/21 09:24:09;;;;;;;0.10;0.10;;;;;;;20.29;46.33;96861.78;5004077;28;20141;-79
2023/10/21 09:26:41;;;;;;;0.10;0.10;;;;;;;19.77;46.92;96865.63;4999481;28;20096;-79
2023/10/21 09:29:11;;;;;;;0.20;0.20;;;;;;;19.60;48.03;96871.66;5020458;28;20042;-79
2023/10/21 09:31:56;;;;;;;0.10;0.10;;;;;;;18.71;50.22;96880.09;5003453;28;20029;-79
2023/10/21 09:34:24;;;;;;;0.10;0.10;;;;;;;18.32;51.05;96891.22;5002073;28;20471;-79
2023/10/21 09:36:54;;;;;;;0.10;0.10;;;;;;;17.76;52.31;96892.91;5000397;28;20049;-79
2023/10/21 09:39:26;;;;;;;0.20;0.20;;;;;;;17.00;53.34;96901.25;5001346;28;20050;-79
2023/10/21 09:41:52;;;;;;;0.10;0.10;;;;;;;17.61;52.86;96892.38;5002380;28;20060;-78
2023/10/21 09:44:18;;;;;;;0.20;0.20;;;;;;;17.64;52.60;96900.41;5001854;28;20387;-78
2023/10/21 09:46:44;;;;;;;0.20;0.20;;;;;;;18.08;52.21;96900.94;5000570;28;20066;-78
2023/10/21 09:49:14;;;;;;;0.20;0.20;;;;;;;17.82;52.33;96909.81;5005038;28;20371;-79
2023/10/21 09:52:01;;;;;;;0.20;0.20;;;;;;;17.87;51.60;96910.56;4989237;28;20409;-78
2023/10/21 09:55:02;;;;;;;0.20;0.20;;;;;;;17.68;52.69;96910.19;4998552;28;20068;-78
2023/10/21 09:57:29;;;;;;;0.20;0.20;;;;;;;18.00;51.27;96910.19;5000099;28;20073;-79
2023/10/21 09:59:56;;;;;;;0.30;0.30;;;;;;;18.47;50.43;96911.47;5003262;28;20030;-78
2023/10/21 10:02:22;;;;;;;0.20;0.20;;;;;;;19.25;48.65;96910.72;5000938;28;20068;-79
2023/10/21 10:04:49;;;;;;;0.13;0.13;;;;;;;19.15;48.78;96900.22;5001330;28;20121;-78
2023/10/21 10:07:17;;;;;;;0.20;0.20;;;;;;;18.79;49.44;96909.59;4998228;28;20038;-78
2023/10/21 10:09:44;;;;;;;0.20;0.20;;;;;;;19.32;48.88;96907.78;5000668;28;20080;-79
2023/10/21 10:12:17;;;;;;;0.20;0.20;;;;;;;18.43;49.83;96913.34;5000270;28;20060;-79
2023/10/21 10:14:43;;;;;;;0.20;0.20;;;;;;;18.55;49.29;96912.09;4999434;28;20030;-82
2023/10/21 10:17:09;;;;;;;0.20;0.20;;;;;;;18.57;49.73;96912.06;5000893;28;20041;-80
2023/10/21 10:19:42;;;;;;;0.30;0.30;;;;;;;20.83;44.78;96903.03;5000271;28;20057;-80
2023/10/21 10:22:28;;;;;;;0.10;0.10;;;;;;;20.11;45.73;96904.00;5005937;28;20411;-80
2023/10/21 10:25:10;;;;;;;0.20;0.20;;;;;;;19.35;47.41;96923.00;5000182;28;20752;-81
2023/10/21 10:27:40;;;;;;;0.20;0.20;;;;;;;19.18;47.76;96910.94;5001922;28;20518;-80
2023/10/21 10:30:19;;;;;;;0.20;0.20;;;;;;;19.58;46.42;96897.84;4984652;28;20057;-79
2023/10/21 10:32:47;;;;;;;0.20;0.20;;;;;;;19.12;47.45;96911.16;4999511;28;20049;-80
2023/10/21 10:35:32;;;;;;;0.20;0.20;;;;;;;19.96;45.13;96901.88;5003447;28;20116;-80
2023/10/21 10:38:02;;;;;;;0.20;0.20;;;;;;;19.82;45.16;96902.38;5001175;28;20069;-80
2023/10/21 10:40:38;;;;;;;0.20;0.20;;;;;;;21.75;41.61;96902.69;4997361;28;20038;-80
2023/10/21 10:43:10;;;;;;;;;;;;;;;22.87;39.82;96905.66;5005117;28;20121;-81
2023/10/21 10:45:36;;;;;;;0.20;0.20;;;;;;;23.19;38.52;96902.25;5000899;28;21659;-80
2023/10/21 10:48:03;;;;;;;0.20;0.20;;;;;;;23.87;36.77;96899.66;5015755;28;20112;-81
2023/10/21 10:50:36;;;;;;;;;;;;;;;23.00;37.25;96895.97;5002831;28;20073;-81
2023/10/21 10:53:12;;;;;;;0.20;0.20;;;;;;;23.88;35.56;96897.81;5001765;28;19916;-81
2023/10/21 10:55:42;;;;;;;0.20;0.20;;;;;;;23.49;37.32;96890.75;5002135;28;20034;-83
2023/10/21 10:58:07;;;;;;;0.17;0.17;;;;;;;24.59;35.16;96893.00;4999699;28;20033;-81
2023/10/21 11:00:33;;;;;;;0.10;0.10;;;;;;;23.95;35.74;96893.78;4997594;28;20070;-82
2023/10/21 11:02:59;;;;;;;0.10;0.10;;;;;;;23.00;37.54;96904.13;5000052;28;20048;-83
2023/10/21 11:05:25;;;;;;;0.10;0.10;;;;;;;20.97;42.00;96900.63;5000025;28;20046;-82
2023/10/21 11:07:52;;;;;;;0.27;0.27;;;;;;;22.14;39.02;96902.78;5002102;28;20053;-84
2023/10/21 11:10:22;;;;;;;0.20;0.20;;;;;;;23.76;35.88;96913.84;5000711;28;20041;-85
2023/10/21 11:12:51;;;;;;;0.20;0.20;;;;;;;24.93;34.79;96908.34;5002597;28;20103;-83
2023/10/21 11:15:16;;;;;;;0.20;0.20;;;;;;;24.99;33.67;96910.72;5000292;28;20046;-82
2023/10/21 11:17:51;;;;;;;0.20;0.20;;;;;;;23.37;37.07;96916.75;5001469;28;20033;-83
2023/10/21 11:20:17;;;;;;;0.10;0.10;;;;;;;23.18;38.08;96921.34;5000487;28;20480;-82
2023/10/21 11:22:42;;;;;;;0.20;0.20;;;;;;;23.18;37.07;96919.50;5002129;28;20052;-85
2023/10/21 11:25:08;;;;;;;0.20;0.20;;;;;;;23.81;36.04;96924.47;5001542;28;20030;-83
2023/10/21 11:27:35;;;;;;;0.20;0.20;;;;;;;24.78;34.36;96920.13;5001759;28;20034;-85
2023/10/21 11:30:01;;;;;;;;;;;;;;;23.73;35.44;96914.00;5003033;28;20117;-84
2023/10/21 11:32:31;;;;;;;0.20;0.20;;;;;;;22.30;38.70;96918.38;5005095;28;20346;-84
2023/10/21 11:35:11;;;;;;;0.10;0.10;;;;;;;21.81;39.08;96915.16;5005831;28;20042;-82